Recluse, WY (82725)

3:38 AM MDT on April 28, 2017 (GMT -0600)
Gillette-Campbell County | | Change Station
Active Advisory: Winter Weather Advisory

Elev 4364 ft 44.35 °N, 105.54 °W | Updated 45 minutes ago

Snow
Snow
33 °F
Feels Like 27 °F
N
7
Wind Variable Wind from NNE

Today
High -- | Low -- °F
--% Chance of Precip.
Yesterday
High -- | Low -- °F
Precip. -- in
Pressure 29.75 in
Visibility -9999.0 miles
Clouds Overcast 300 ft
Windchill 27 °F
Dew Point 33 °F
Humidity 100%
Rainfall 0.18 in
Snow Depth Not available.
5:56 AM 8:04 PM
Waxing Crescent, 5% visible
METAR KGCC 280853Z AUTO 03006KT SN OVC003 01/01 A2971 RMK AO2 SLP075 P0005 60018 T00060006 51004 $
Pressure 29.75 in
Visibility -9999.0 miles
Clouds Overcast 300 ft
Windchill 27 °F
Dew Point 33 °F
Humidity 100%
Rainfall 0.18 in
Snow Depth Not available.
5:56 AM 8:04 PM
Waxing Crescent, 5% visible
METAR KGCC 280853Z AUTO 03006KT SN OVC003 01/01 A2971 RMK AO2 SLP075 P0005 60018 T00060006 51004 $

Get Your Daily Forecast Email!

Thanks for signing up!

Be on the lookout for a verification email in your inbox.

You'll start receiving severe weather alerts in your inbox..

×

10-Day Weather Forecast

Almanac

Astronomy

Apr. 28, 2017 Rise Set
Actual Time
Civil Twilight
Nautical Twilight
Astronomical Twilight
Moon
Length of Visible Light
Length of Day
Tomorrow will be .
, % of the Moon is Illuminated

Today's Extremes

State Highs State Lows

Community

WunderPhotos

WunderBlog® & News

Nearby

Air Quality

  Air Quality AQ Index Pollutant
Not available.

Snow Depth

Station Depth Elevation

Earthquake Activity

City Distance Mag. Time & Date
Minimum magnitude displayed is 2.5.

Coastal Water Temperatures

Place Temperature

Stations

Nearby Weather Stations

Station Location Temp. Windchill Dew Point Humidity Wind Precip. Elev Updated Type
                   

Watches & Warnings

Winter Weather Advisory
Issued: 8:21 PM MDT Apr. 27, 2017 – National Weather Service

... Winter Weather Advisory remains in effect until 6 PM MDT
Friday...

* timing... rain and snow will continue this evening, becoming all
snow tonight. Snow, moderate to heavy at times, will continue
through at least midday Friday, then begin to taper off in the
afternoon.

* Main impact... snowfall totals of 2 to 6 inches are expected.
The heaviest snowfall totals will generally be found across
western portions of northern Campbell County and southwestern
portions of Weston County.

* Other impacts... visibilities will be reduced to near a quarter
mile in the heavier snow. With many trees beginning to Leaf
out, the heavy wet snow could bring down some tree limbs.

Precautionary/preparedness actions...

A Winter Weather Advisory for snow means snow accumulation will
create hazardous conditions. Use caution when traveling.